Карточка аэропорта UHMM

Внимание!
Информация на этой странице в стадии наполнения.
Если вы не увидели какой-то информации, или заметили неточность - пожалуйста сообщите нам!
Спасибо!
Команда XR-STAFF
Название аэропортаСокол
Название аэропорта (англ.)Sokol
Превышение574 ft. (175 m.)
Координаты59°54.648', 150°43.2'
Высота перехода2500m
Эшелон переходаQFE>=744mm: FL100; 744mm>QFE>=717mm: FL110; QFE<717mm: FL120
Коды ответчика6540-6577
Зона ОрВДМагадан РПИ (UHMM)
Данные METARUHMM 160730Z 09011MPS 9999 OVC025CB 05/01 Q1013 R10/19//60 NOSIG RMK MT OBSC QFE745 R28/12009G14MPS
Проноз погоды (TAF)UHMM 160442Z 1606/1712 10009G14MPS 9999 SCT011 OVC025CB TEMPO 1606/1611 1200 SHRA BR SCT005 OVC015CB TEMPO 1611/1618 0600 FG VV003 FM161800 12005G10MPS 9999 -SHRA SCT011 OVC020CB TEMPO 1618/1712 3100 -SHRA BR
NOTAMshow/hide NOTAM
AWOS   TABLE

Информация о ВПП


Диспетчерские позиции

Позывной Наименование органа УВД Частота
UHMM_APPМагадан-Подход119.3
UHMM_TWRМагадан-Вышка120.8



Спутниковое изображение